KDPA/DPA METAR and TAF weather

Enter ICAO airport designator
Station Type Date Time Source
KDPA METAR 2021/09/24 05:52 UTC NOAA

KDPA 240552Z 27006KT 10SM CLR 11/06 A2996 RMK AO2 SLP143 T01110061 10156 20089 402060089 53001


Station Type Date Time Source
KDPA Decoded METAR 2021/09/24 05:52 UTC NOAA

CHICAGO/WEST CH DUPAGE, IL, United States (KDPA) 41-54N 88-15W 230M
Sep 24, 2021 - 01:52 AM EDT / 2021.09.24 0552 UTC
Wind: from the W (270 degrees) at 7 MPH (6 KT):0
Visibility: 10 mile(s):0
Sky conditions: clear
Temperature: 52.0 F (11.1 C)
Dew Point: 43.0 F (6.1 C)
Relative Humidity: 71%
Pressure (altimeter): 29.96 in. Hg (1014 hPa)
Pressure tendency: 0.00 inches (0.1 hPa) higher than three hours ago
ob: KDPA 240552Z 27006KT 10SM CLR 11/06 A2996 RMK AO2 SLP143 T01110061 10156 20089 402060089 53001
cycle: 6

Station Type Date Time Source
KDPA TAF 2021/09/24 06:24 UTC NOAA

TAF KDPA 240521Z 2406/2506 25006KT P6SM SKC
FM241600 22012G21KT P6SM SCT250
FM242000 21017G28KT P6SM SCT150 BKN250
FM250000 22015G26KT P6SM VCSH BKN080
FM250300 30011G20KT P6SM -SHRA SCT025 OVC040
TEMPO 2503/2505 3SM SHRA BKN025

Example: see airport list